sensor_id;sensor_type;location;lat;lon;timestamp;pressure;altitude;pressure_sealevel;temperature
19948;BMP180;10135;50.702;7.276;2024-02-26T06:00:11;97595.00;;;11.20
19948;BMP180;10135;50.702;7.276;2024-02-26T06:02:12;97598.00;;;11.20
19948;BMP180;10135;50.702;7.276;2024-02-26T06:04:13;97593.00;;;11.20
19948;BMP180;10135;50.702;7.276;2024-02-26T06:06:14;97598.00;;;11.20
19948;BMP180;10135;50.702;7.276;2024-02-26T06:08:15;97604.00;;;11.20
19948;BMP180;10135;50.702;7.276;2024-02-26T06:10:16;97608.00;;;11.20
19948;BMP180;10135;50.702;7.276;2024-02-26T06:12:16;97607.00;;;11.20
19948;BMP180;10135;50.702;7.276;2024-02-26T06:14:17;97617.00;;;11.20
19948;BMP180;10135;50.702;7.276;2024-02-26T06:16:19;97611.00;;;11.20
19948;BMP180;10135;50.702;7.276;2024-02-26T06:18:19;97616.00;;;11.20
19948;BMP180;10135;50.702;7.276;2024-02-26T06:20:20;97611.00;;;11.20
19948;BMP180;10135;50.702;7.276;2024-02-26T06:22:20;97622.00;;;11.20
19948;BMP180;10135;50.702;7.276;2024-02-26T06:24:21;97621.00;;;11.20
19948;BMP180;10135;50.702;7.276;2024-02-26T06:26:22;97623.00;;;11.20
19948;BMP180;10135;50.702;7.276;2024-02-26T06:28:23;97626.00;;;11.20
19948;BMP180;10135;50.702;7.276;2024-02-26T06:30:24;97626.00;;;11.20
19948;BMP180;10135;50.702;7.276;2024-02-26T06:32:25;97624.00;;;11.20
19948;BMP180;10135;50.702;7.276;2024-02-26T06:34:28;97630.00;;;11.20
19948;BMP180;10135;50.702;7.276;2024-02-26T06:36:28;97626.00;;;11.20
19948;BMP180;10135;50.702;7.276;2024-02-26T06:38:29;97637.00;;;11.20
19948;BMP180;10135;50.702;7.276;2024-02-26T06:40:30;97637.00;;;11.20
19948;BMP180;10135;50.702;7.276;2024-02-26T06:42:30;97641.00;;;11.20
19948;BMP180;10135;50.702;7.276;2024-02-26T06:44:31;97644.00;;;11.20
19948;BMP180;10135;50.702;7.276;2024-02-26T06:46:32;97646.00;;;11.10
19948;BMP180;10135;50.702;7.276;2024-02-26T06:48:33;97637.00;;;11.20
19948;BMP180;10135;50.702;7.276;2024-02-26T06:50:33;97652.00;;;11.20
19948;BMP180;10135;50.702;7.276;2024-02-26T06:52:34;97655.00;;;11.20
19948;BMP180;10135;50.702;7.276;2024-02-26T06:54:35;97649.00;;;11.10
19948;BMP180;10135;50.702;7.276;2024-02-26T06:56:35;97659.00;;;11.20
19948;BMP180;10135;50.702;7.276;2024-02-26T06:58:36;97668.00;;;11.20
19948;BMP180;10135;50.702;7.276;2024-02-26T07:00:37;97665.00;;;11.20
19948;BMP180;10135;50.702;7.276;2024-02-26T07:02:37;97667.00;;;11.20
19948;BMP180;10135;50.702;7.276;2024-02-26T07:04:38;97669.00;;;11.20
19948;BMP180;10135;50.702;7.276;2024-02-26T07:06:38;97670.00;;;11.20
19948;BMP180;10135;50.702;7.276;2024-02-26T07:08:39;97672.00;;;11.20
19948;BMP180;10135;50.702;7.276;2024-02-26T07:10:40;97680.00;;;11.20
19948;BMP180;10135;50.702;7.276;2024-02-26T07:12:41;97674.00;;;11.20
19948;BMP180;10135;50.702;7.276;2024-02-26T07:14:41;97681.00;;;11.20
19948;BMP180;10135;50.702;7.276;2024-02-26T07:16:42;97681.00;;;11.20
19948;BMP180;10135;50.702;7.276;2024-02-26T07:18:43;97687.00;;;11.20
19948;BMP180;10135;50.702;7.276;2024-02-26T07:20:43;97692.00;;;11.20
19948;BMP180;10135;50.702;7.276;2024-02-26T07:22:44;97690.00;;;11.20
19948;BMP180;10135;50.702;7.276;2024-02-26T07:24:45;97691.00;;;11.20
19948;BMP180;10135;50.702;7.276;2024-02-26T07:26:46;97694.00;;;11.20
19948;BMP180;10135;50.702;7.276;2024-02-26T07:28:46;97690.00;;;11.20
19948;BMP180;10135;50.702;7.276;2024-02-26T07:30:47;97694.00;;;11.20
19948;BMP180;10135;50.702;7.276;2024-02-26T07:32:48;97699.00;;;11.20
19948;BMP180;10135;50.702;7.276;2024-02-26T07:34:48;97693.00;;;11.20
19948;BMP180;10135;50.702;7.276;2024-02-26T07:36:49;97694.00;;;11.20
19948;BMP180;10135;50.702;7.276;2024-02-26T07:38:49;97702.00;;;11.20
19948;BMP180;10135;50.702;7.276;2024-02-26T07:40:52;97700.00;;;11.10
19948;BMP180;10135;50.702;7.276;2024-02-26T07:42:53;97706.00;;;11.10
19948;BMP180;10135;50.702;7.276;2024-02-26T07:44:53;97711.00;;;11.10
19948;BMP180;10135;50.702;7.276;2024-02-26T07:46:54;97704.00;;;11.10
19948;BMP180;10135;50.702;7.276;2024-02-26T07:48:55;97708.00;;;11.20
19948;BMP180;10135;50.702;7.276;2024-02-26T07:50:55;97710.00;;;11.20
19948;BMP180;10135;50.702;7.276;2024-02-26T07:52:56;97713.00;;;11.20
19948;BMP180;10135;50.702;7.276;2024-02-26T07:54:57;97720.00;;;11.20
19948;BMP180;10135;50.702;7.276;2024-02-26T07:56:58;97723.00;;;11.20
19948;BMP180;10135;50.702;7.276;2024-02-26T07:58:59;97728.00;;;11.20
19948;BMP180;10135;50.702;7.276;2024-02-26T08:00:59;97728.00;;;11.20
19948;BMP180;10135;50.702;7.276;2024-02-26T08:03:00;97725.00;;;11.20
19948;BMP180;10135;50.702;7.276;2024-02-26T08:05:01;97722.00;;;11.20
19948;BMP180;10135;50.702;7.276;2024-02-26T08:07:02;97731.00;;;11.20
19948;BMP180;10135;50.702;7.276;2024-02-26T08:09:03;97725.00;;;11.10
19948;BMP180;10135;50.702;7.276;2024-02-26T08:11:04;97729.00;;;11.10
19948;BMP180;10135;50.702;7.276;2024-02-26T08:13:05;97734.00;;;11.10
19948;BMP180;10135;50.702;7.276;2024-02-26T08:15:07;97738.00;;;11.10
19948;BMP180;10135;50.702;7.276;2024-02-26T08:17:08;97742.00;;;11.10
19948;BMP180;10135;50.702;7.276;2024-02-26T08:19:09;97744.00;;;11.10
19948;BMP180;10135;50.702;7.276;2024-02-26T08:21:11;97751.00;;;11.10
19948;BMP180;10135;50.702;7.276;2024-02-26T08:23:12;97759.00;;;11.10
19948;BMP180;10135;50.702;7.276;2024-02-26T08:25:13;97760.00;;;11.10
19948;BMP180;10135;50.702;7.276;2024-02-26T08:27:14;97769.00;;;11.10
19948;BMP180;10135;50.702;7.276;2024-02-26T08:29:14;97768.00;;;11.10
19948;BMP180;10135;50.702;7.276;2024-02-26T08:31:15;97767.00;;;11.10
19948;BMP180;10135;50.702;7.276;2024-02-26T08:33:15;97765.00;;;11.10
19948;BMP180;10135;50.702;7.276;2024-02-26T08:35:16;97773.00;;;11.10
19948;BMP180;10135;50.702;7.276;2024-02-26T08:37:17;97775.00;;;11.10
19948;BMP180;10135;50.702;7.276;2024-02-26T08:39:18;97773.00;;;11.10
19948;BMP180;10135;50.702;7.276;2024-02-26T08:41:19;97775.00;;;11.10
19948;BMP180;10135;50.702;7.276;2024-02-26T08:43:19;97786.00;;;11.10
19948;BMP180;10135;50.702;7.276;2024-02-26T08:45:20;97780.00;;;11.10
19948;BMP180;10135;50.702;7.276;2024-02-26T08:47:20;97792.00;;;11.10
19948;BMP180;10135;50.702;7.276;2024-02-26T08:49:21;97785.00;;;11.10
19948;BMP180;10135;50.702;7.276;2024-02-26T08:51:24;97787.00;;;11.10
19948;BMP180;10135;50.702;7.276;2024-02-26T08:53:24;97789.00;;;11.10
19948;BMP180;10135;50.702;7.276;2024-02-26T08:55:27;97789.00;;;11.10
19948;BMP180;10135;50.702;7.276;2024-02-26T08:57:27;97788.00;;;11.10
19948;BMP180;10135;50.702;7.276;2024-02-26T08:59:28;97794.00;;;11.00
19948;BMP180;10135;50.702;7.276;2024-02-26T09:01:31;97788.00;;;11.00
19948;BMP180;10135;50.702;7.276;2024-02-26T09:03:32;97795.00;;;11.00
19948;BMP180;10135;50.702;7.276;2024-02-26T09:05:32;97794.00;;;11.00
19948;BMP180;10135;50.702;7.276;2024-02-26T09:07:33;97808.00;;;11.00
19948;BMP180;10135;50.702;7.276;2024-02-26T09:09:34;97807.00;;;11.00
19948;BMP180;10135;50.702;7.276;2024-02-26T09:11:34;97810.00;;;11.00
19948;BMP180;10135;50.702;7.276;2024-02-26T09:13:35;97815.00;;;11.00
19948;BMP180;10135;50.702;7.276;2024-02-26T09:15:36;97817.00;;;11.00
19948;BMP180;10135;50.702;7.276;2024-02-26T09:17:36;97820.00;;;11.00
19948;BMP180;10135;50.702;7.276;2024-02-26T09:19:37;97822.00;;;11.00
19948;BMP180;10135;50.702;7.276;2024-02-26T09:21:45;97827.00;;;11.00
19948;BMP180;10135;50.702;7.276;2024-02-26T09:23:46;97822.00;;;11.10
19948;BMP180;10135;50.702;7.276;2024-02-26T09:25:47;97820.00;;;11.10
19948;BMP180;10135;50.702;7.276;2024-02-26T09:27:47;97822.00;;;11.10
19948;BMP180;10135;50.702;7.276;2024-02-26T09:29:48;97829.00;;;11.10
19948;BMP180;10135;50.702;7.276;2024-02-26T09:31:49;97827.00;;;11.10
19948;BMP180;10135;50.702;7.276;2024-02-26T09:33:49;97832.00;;;11.10
19948;BMP180;10135;50.702;7.276;2024-02-26T09:35:50;97828.00;;;11.10
19948;BMP180;10135;50.702;7.276;2024-02-26T09:37:51;97823.00;;;11.20
19948;BMP180;10135;50.702;7.276;2024-02-26T09:39:51;97833.00;;;11.20
19948;BMP180;10135;50.702;7.276;2024-02-26T09:41:52;97828.00;;;11.20
19948;BMP180;10135;50.702;7.276;2024-02-26T09:43:57;97834.00;;;11.20
19948;BMP180;10135;50.702;7.276;2024-02-26T09:45:58;97840.00;;;11.20
19948;BMP180;10135;50.702;7.276;2024-02-26T09:47:59;97844.00;;;11.20
19948;BMP180;10135;50.702;7.276;2024-02-26T09:50:01;97843.00;;;11.20
19948;BMP180;10135;50.702;7.276;2024-02-26T09:52:05;97843.00;;;11.20
19948;BMP180;10135;50.702;7.276;2024-02-26T09:54:09;97855.00;;;11.20
19948;BMP180;10135;50.702;7.276;2024-02-26T09:56:12;97846.00;;;11.20
19948;BMP180;10135;50.702;7.276;2024-02-26T09:58:16;97846.00;;;11.20
19948;BMP180;10135;50.702;7.276;2024-02-26T10:00:21;97841.00;;;11.30
19948;BMP180;10135;50.702;7.276;2024-02-26T10:02:22;97846.00;;;11.30
19948;BMP180;10135;50.702;7.276;2024-02-26T10:04:25;97841.00;;;11.30
19948;BMP180;10135;50.702;7.276;2024-02-26T10:06:26;97851.00;;;11.30
19948;BMP180;10135;50.702;7.276;2024-02-26T10:08:29;97855.00;;;11.30
19948;BMP180;10135;50.702;7.276;2024-02-26T10:10:32;97853.00;;;11.30
19948;BMP180;10135;50.702;7.276;2024-02-26T10:12:33;97850.00;;;11.30
19948;BMP180;10135;50.702;7.276;2024-02-26T10:14:34;97847.00;;;11.40
19948;BMP180;10135;50.702;7.276;2024-02-26T10:16:35;97847.00;;;11.40
19948;BMP180;10135;50.702;7.276;2024-02-26T10:18:53;97846.00;;;11.40
19948;BMP180;10135;50.702;7.276;2024-02-26T10:21:00;97854.00;;;11.50
19948;BMP180;10135;50.702;7.276;2024-02-26T10:23:05;97847.00;;;11.50
19948;BMP180;10135;50.702;7.276;2024-02-26T10:25:05;97855.00;;;11.50
19948;BMP180;10135;50.702;7.276;2024-02-26T10:27:08;97856.00;;;11.50
19948;BMP180;10135;50.702;7.276;2024-02-26T10:29:09;97865.00;;;11.60
19948;BMP180;10135;50.702;7.276;2024-02-26T10:31:11;97862.00;;;11.60
19948;BMP180;10135;50.702;7.276;2024-02-26T10:33:11;97872.00;;;11.70
19948;BMP180;10135;50.702;7.276;2024-02-26T10:35:17;97870.00;;;11.70
19948;BMP180;10135;50.702;7.276;2024-02-26T10:37:18;97876.00;;;11.70
19948;BMP180;10135;50.702;7.276;2024-02-26T10:39:18;97876.00;;;11.80
19948;BMP180;10135;50.702;7.276;2024-02-26T10:41:19;97879.00;;;11.80
19948;BMP180;10135;50.702;7.276;2024-02-26T10:43:20;97881.00;;;11.80
19948;BMP180;10135;50.702;7.276;2024-02-26T10:45:20;97886.00;;;11.80
19948;BMP180;10135;50.702;7.276;2024-02-26T10:47:21;97885.00;;;11.80
19948;BMP180;10135;50.702;7.276;2024-02-26T10:49:22;97888.00;;;11.90
19948;BMP180;10135;50.702;7.276;2024-02-26T10:51:30;97895.00;;;11.90
19948;BMP180;10135;50.702;7.276;2024-02-26T10:53:33;97882.00;;;11.90
19948;BMP180;10135;50.702;7.276;2024-02-26T10:55:35;97896.00;;;11.90
19948;BMP180;10135;50.702;7.276;2024-02-26T10:57:41;97888.00;;;11.90
19948;BMP180;10135;50.702;7.276;2024-02-26T10:59:44;97889.00;;;12.00
19948;BMP180;10135;50.702;7.276;2024-02-26T11:01:45;97894.00;;;12.00
19948;BMP180;10135;50.702;7.276;2024-02-26T11:03:51;97901.00;;;12.00
19948;BMP180;10135;50.702;7.276;2024-02-26T11:05:52;97900.00;;;12.00
19948;BMP180;10135;50.702;7.276;2024-02-26T11:07:54;97907.00;;;12.00
19948;BMP180;10135;50.702;7.276;2024-02-26T11:09:59;97908.00;;;12.00
19948;BMP180;10135;50.702;7.276;2024-02-26T11:12:00;97913.00;;;12.00
19948;BMP180;10135;50.702;7.276;2024-02-26T11:14:03;97910.00;;;12.00
19948;BMP180;10135;50.702;7.276;2024-02-26T11:16:04;97913.00;;;12.00
19948;BMP180;10135;50.702;7.276;2024-02-26T11:18:07;97921.00;;;12.00
19948;BMP180;10135;50.702;7.276;2024-02-26T11:20:11;97923.00;;;12.00
19948;BMP180;10135;50.702;7.276;2024-02-26T11:22:13;97926.00;;;12.00
19948;BMP180;10135;50.702;7.276;2024-02-26T11:24:16;97927.00;;;12.00
19948;BMP180;10135;50.702;7.276;2024-02-26T11:26:21;97933.00;;;12.00
19948;BMP180;10135;50.702;7.276;2024-02-26T11:28:25;97931.00;;;12.00
19948;BMP180;10135;50.702;7.276;2024-02-26T11:30:32;97936.00;;;12.00
19948;BMP180;10135;50.702;7.276;2024-02-26T11:32:33;97938.00;;;12.10
19948;BMP180;10135;50.702;7.276;2024-02-26T11:34:36;97941.00;;;12.10
19948;BMP180;10135;50.702;7.276;2024-02-26T11:36:37;97937.00;;;12.10
19948;BMP180;10135;50.702;7.276;2024-02-26T11:38:38;97940.00;;;12.10
19948;BMP180;10135;50.702;7.276;2024-02-26T11:40:39;97940.00;;;12.10
19948;BMP180;10135;50.702;7.276;2024-02-26T11:42:44;97928.00;;;12.10
19948;BMP180;10135;50.702;7.276;2024-02-26T11:44:46;97932.00;;;12.10
19948;BMP180;10135;50.702;7.276;2024-02-26T11:46:46;97928.00;;;12.20
19948;BMP180;10135;50.702;7.276;2024-02-26T11:48:48;97930.00;;;12.20
19948;BMP180;10135;50.702;7.276;2024-02-26T11:50:55;97934.00;;;12.30
19948;BMP180;10135;50.702;7.276;2024-02-26T11:53:30;97931.00;;;12.30
19948;BMP180;10135;50.702;7.276;2024-02-26T11:55:32;97933.00;;;12.30
19948;BMP180;10135;50.702;7.276;2024-02-26T11:57:39;97929.00;;;12.30
19948;BMP180;10135;50.702;7.276;2024-02-26T11:59:40;97934.00;;;12.40
19948;BMP180;10135;50.702;7.276;2024-02-26T12:01:47;97926.00;;;12.40
19948;BMP180;10135;50.702;7.276;2024-02-26T12:03:54;97929.00;;;12.40
19948;BMP180;10135;50.702;7.276;2024-02-26T12:05:56;97937.00;;;12.40
19948;BMP180;10135;50.702;7.276;2024-02-26T12:08:05;97943.00;;;12.40
19948;BMP180;10135;50.702;7.276;2024-02-26T12:10:39;97952.00;;;12.40
19948;BMP180;10135;50.702;7.276;2024-02-26T12:12:40;97950.00;;;12.40
19948;BMP180;10135;50.702;7.276;2024-02-26T12:14:52;97946.00;;;12.40
19948;BMP180;10135;50.702;7.276;2024-02-26T12:16:55;97949.00;;;12.40
19948;BMP180;10135;50.702;7.276;2024-02-26T12:18:56;97952.00;;;12.40
19948;BMP180;10135;50.702;7.276;2024-02-26T12:21:02;97956.00;;;12.40
19948;BMP180;10135;50.702;7.276;2024-02-26T12:23:04;97962.00;;;12.40
19948;BMP180;10135;50.702;7.276;2024-02-26T12:25:05;97962.00;;;12.40
19948;BMP180;10135;50.702;7.276;2024-02-26T12:27:06;97964.00;;;12.40
19948;BMP180;10135;50.702;7.276;2024-02-26T12:29:08;97966.00;;;12.40
19948;BMP180;10135;50.702;7.276;2024-02-26T12:31:09;97969.00;;;12.40
19948;BMP180;10135;50.702;7.276;2024-02-26T12:33:10;97968.00;;;12.40
19948;BMP180;10135;50.702;7.276;2024-02-26T12:35:11;97968.00;;;12.40
19948;BMP180;10135;50.702;7.276;2024-02-26T12:37:13;97984.00;;;12.40
19948;BMP180;10135;50.702;7.276;2024-02-26T12:39:13;97984.00;;;12.40
19948;BMP180;10135;50.702;7.276;2024-02-26T12:41:14;97987.00;;;12.40
19948;BMP180;10135;50.702;7.276;2024-02-26T12:43:16;97979.00;;;12.40
19948;BMP180;10135;50.702;7.276;2024-02-26T12:45:16;97987.00;;;12.40
19948;BMP180;10135;50.702;7.276;2024-02-26T12:47:17;97996.00;;;12.40
19948;BMP180;10135;50.702;7.276;2024-02-26T12:49:18;97989.00;;;12.40
19948;BMP180;10135;50.702;7.276;2024-02-26T12:51:19;97989.00;;;12.40
19948;BMP180;10135;50.702;7.276;2024-02-26T12:53:21;97991.00;;;12.40
19948;BMP180;10135;50.702;7.276;2024-02-26T12:55:22;97999.00;;;12.40
19948;BMP180;10135;50.702;7.276;2024-02-26T12:57:23;97999.00;;;12.30
19948;BMP180;10135;50.702;7.276;2024-02-26T12:59:25;98002.00;;;12.40
19948;BMP180;10135;50.702;7.276;2024-02-26T13:01:26;98005.00;;;12.40
19948;BMP180;10135;50.702;7.276;2024-02-26T13:03:27;98007.00;;;12.30
19948;BMP180;10135;50.702;7.276;2024-02-26T13:05:29;98011.00;;;12.30
19948;BMP180;10135;50.702;7.276;2024-02-26T13:07:30;98021.00;;;12.30
19948;BMP180;10135;50.702;7.276;2024-02-26T13:09:35;98015.00;;;12.30
19948;BMP180;10135;50.702;7.276;2024-02-26T13:11:40;98021.00;;;12.30
19948;BMP180;10135;50.702;7.276;2024-02-26T13:13:41;98027.00;;;12.30
19948;BMP180;10135;50.702;7.276;2024-02-26T13:15:41;98029.00;;;12.30
19948;BMP180;10135;50.702;7.276;2024-02-26T13:17:42;98034.00;;;12.30
19948;BMP180;10135;50.702;7.276;2024-02-26T13:19:50;98037.00;;;12.30
19948;BMP180;10135;50.702;7.276;2024-02-26T13:21:51;98036.00;;;12.30
19948;BMP180;10135;50.702;7.276;2024-02-26T13:23:53;98037.00;;;12.30
19948;BMP180;10135;50.702;7.276;2024-02-26T13:25:56;98042.00;;;12.30
19948;BMP180;10135;50.702;7.276;2024-02-26T13:28:18;98045.00;;;12.30
19948;BMP180;10135;50.702;7.276;2024-02-26T13:30:27;98042.00;;;12.30
19948;BMP180;10135;50.702;7.276;2024-02-26T13:32:28;98049.00;;;12.30
19948;BMP180;10135;50.702;7.276;2024-02-26T13:34:31;98040.00;;;12.40
19948;BMP180;10135;50.702;7.276;2024-02-26T13:36:33;98046.00;;;12.40
19948;BMP180;10135;50.702;7.276;2024-02-26T13:48:23;98056.00;;;12.50
19948;BMP180;10135;50.702;7.276;2024-02-26T13:50:24;98057.00;;;12.50
19948;BMP180;10135;50.702;7.276;2024-02-26T13:52:25;98063.00;;;12.50
19948;BMP180;10135;50.702;7.276;2024-02-26T13:54:26;98061.00;;;12.50
19948;BMP180;10135;50.702;7.276;2024-02-26T13:56:26;98063.00;;;12.50
19948;BMP180;10135;50.702;7.276;2024-02-26T13:58:27;98061.00;;;12.50
19948;BMP180;10135;50.702;7.276;2024-02-26T14:00:31;98071.00;;;12.50
19948;BMP180;10135;50.702;7.276;2024-02-26T14:02:35;98075.00;;;12.50
19948;BMP180;10135;50.702;7.276;2024-02-26T14:04:37;98074.00;;;12.60
19948;BMP180;10135;50.702;7.276;2024-02-26T14:06:39;98079.00;;;12.60
19948;BMP180;10135;50.702;7.276;2024-02-26T14:08:40;98082.00;;;12.60
19948;BMP180;10135;50.702;7.276;2024-02-26T14:10:41;98079.00;;;12.60
19948;BMP180;10135;50.702;7.276;2024-02-26T14:12:41;98080.00;;;12.60
19948;BMP180;10135;50.702;7.276;2024-02-26T14:14:42;98088.00;;;12.60
19948;BMP180;10135;50.702;7.276;2024-02-26T14:16:43;98091.00;;;12.60
19948;BMP180;10135;50.702;7.276;2024-02-26T14:18:43;98089.00;;;12.60
19948;BMP180;10135;50.702;7.276;2024-02-26T14:20:45;98083.00;;;12.60
19948;BMP180;10135;50.702;7.276;2024-02-26T14:22:46;98095.00;;;12.60
19948;BMP180;10135;50.702;7.276;2024-02-26T14:24:47;98091.00;;;12.70
19948;BMP180;10135;50.702;7.276;2024-02-26T14:26:48;98089.00;;;12.70
19948;BMP180;10135;50.702;7.276;2024-02-26T14:28:49;98096.00;;;12.70
19948;BMP180;10135;50.702;7.276;2024-02-26T14:30:49;98095.00;;;12.70
19948;BMP180;10135;50.702;7.276;2024-02-26T14:32:50;98092.00;;;12.70
19948;BMP180;10135;50.702;7.276;2024-02-26T14:34:51;98106.00;;;12.70
19948;BMP180;10135;50.702;7.276;2024-02-26T14:36:51;98100.00;;;12.60
19948;BMP180;10135;50.702;7.276;2024-02-26T14:38:52;98109.00;;;12.60
19948;BMP180;10135;50.702;7.276;2024-02-26T14:40:53;98112.00;;;12.60
19948;BMP180;10135;50.702;7.276;2024-02-26T14:42:53;98112.00;;;12.60
19948;BMP180;10135;50.702;7.276;2024-02-26T14:44:54;98121.00;;;12.60
19948;BMP180;10135;50.702;7.276;2024-02-26T14:46:55;98118.00;;;12.60
19948;BMP180;10135;50.702;7.276;2024-02-26T14:48:55;98125.00;;;12.60
19948;BMP180;10135;50.702;7.276;2024-02-26T14:50:56;98135.00;;;12.50
19948;BMP180;10135;50.702;7.276;2024-02-26T14:52:57;98131.00;;;12.50
19948;BMP180;10135;50.702;7.276;2024-02-26T14:54:58;98132.00;;;12.50
19948;BMP180;10135;50.702;7.276;2024-02-26T14:56:59;98134.00;;;12.50
19948;BMP180;10135;50.702;7.276;2024-02-26T14:59:00;98142.00;;;12.50
19948;BMP180;10135;50.702;7.276;2024-02-26T15:01:00;98144.00;;;12.50
19948;BMP180;10135;50.702;7.276;2024-02-26T15:03:01;98150.00;;;12.50
19948;BMP180;10135;50.702;7.276;2024-02-26T15:05:02;98148.00;;;12.50
19948;BMP180;10135;50.702;7.276;2024-02-26T15:07:04;98142.00;;;12.50
19948;BMP180;10135;50.702;7.276;2024-02-26T15:09:05;98156.00;;;12.50
19948;BMP180;10135;50.702;7.276;2024-02-26T15:11:06;98155.00;;;12.50
19948;BMP180;10135;50.702;7.276;2024-02-26T15:13:07;98153.00;;;12.50
19948;BMP180;10135;50.702;7.276;2024-02-26T15:15:08;98159.00;;;12.50
19948;BMP180;10135;50.702;7.276;2024-02-26T15:17:09;98165.00;;;12.50
19948;BMP180;10135;50.702;7.276;2024-02-26T15:19:11;98162.00;;;12.50
19948;BMP180;10135;50.702;7.276;2024-02-26T15:28:41;98174.00;;;12.50
19948;BMP180;10135;50.702;7.276;2024-02-26T15:30:42;98171.00;;;12.50
19948;BMP180;10135;50.702;7.276;2024-02-26T15:32:42;98184.00;;;12.50
19948;BMP180;10135;50.702;7.276;2024-02-26T15:34:43;98177.00;;;12.50
19948;BMP180;10135;50.702;7.276;2024-02-26T15:36:44;98175.00;;;12.50
19948;BMP180;10135;50.702;7.276;2024-02-26T15:38:47;98185.00;;;12.50
19948;BMP180;10135;50.702;7.276;2024-02-26T15:40:48;98189.00;;;12.60
19948;BMP180;10135;50.702;7.276;2024-02-26T15:42:49;98185.00;;;12.60
19948;BMP180;10135;50.702;7.276;2024-02-26T15:44:50;98189.00;;;12.60
19948;BMP180;10135;50.702;7.276;2024-02-26T15:46:50;98188.00;;;12.60
19948;BMP180;10135;50.702;7.276;2024-02-26T15:48:51;98188.00;;;12.60
19948;BMP180;10135;50.702;7.276;2024-02-26T15:50:52;98186.00;;;12.60
19948;BMP180;10135;50.702;7.276;2024-02-26T15:52:53;98193.00;;;12.60
19948;BMP180;10135;50.702;7.276;2024-02-26T15:54:55;98193.00;;;12.60
19948;BMP180;10135;50.702;7.276;2024-02-26T15:56:56;98192.00;;;12.60
19948;BMP180;10135;50.702;7.276;2024-02-26T15:58:57;98196.00;;;12.60
19948;BMP180;10135;50.702;7.276;2024-02-26T16:00:57;98197.00;;;12.60
19948;BMP180;10135;50.702;7.276;2024-02-26T16:02:58;98200.00;;;12.60
19948;BMP180;10135;50.702;7.276;2024-02-26T16:04:59;98203.00;;;12.70
19948;BMP180;10135;50.702;7.276;2024-02-26T16:07:05;98208.00;;;12.70
19948;BMP180;10135;50.702;7.276;2024-02-26T16:09:12;98217.00;;;12.70
19948;BMP180;10135;50.702;7.276;2024-02-26T16:11:13;98218.00;;;12.70
19948;BMP180;10135;50.702;7.276;2024-02-26T16:13:14;98220.00;;;12.70
19948;BMP180;10135;50.702;7.276;2024-02-26T16:15:15;98224.00;;;12.70
19948;BMP180;10135;50.702;7.276;2024-02-26T16:17:27;98225.00;;;12.70
19948;BMP180;10135;50.702;7.276;2024-02-26T16:19:41;98230.00;;;12.70
19948;BMP180;10135;50.702;7.276;2024-02-26T16:21:41;98236.00;;;12.70
19948;BMP180;10135;50.702;7.276;2024-02-26T16:23:42;98231.00;;;12.70
19948;BMP180;10135;50.702;7.276;2024-02-26T16:25:43;98247.00;;;12.70
19948;BMP180;10135;50.702;7.276;2024-02-26T16:27:44;98243.00;;;12.70
19948;BMP180;10135;50.702;7.276;2024-02-26T16:29:44;98249.00;;;12.70
19948;BMP180;10135;50.702;7.276;2024-02-26T16:31:45;98260.00;;;12.70
19948;BMP180;10135;50.702;7.276;2024-02-26T16:33:46;98262.00;;;12.80
19948;BMP180;10135;50.702;7.276;2024-02-26T16:35:46;98268.00;;;12.80
19948;BMP180;10135;50.702;7.276;2024-02-26T16:37:47;98272.00;;;12.80
19948;BMP180;10135;50.702;7.276;2024-02-26T16:39:48;98274.00;;;12.80
19948;BMP180;10135;50.702;7.276;2024-02-26T16:41:49;98275.00;;;12.80
19948;BMP180;10135;50.702;7.276;2024-02-26T16:43:50;98285.00;;;12.80
19948;BMP180;10135;50.702;7.276;2024-02-26T16:45:51;98285.00;;;12.80
19948;BMP180;10135;50.702;7.276;2024-02-26T16:47:52;98285.00;;;12.80
19948;BMP180;10135;50.702;7.276;2024-02-26T16:49:52;98299.00;;;12.90
19948;BMP180;10135;50.702;7.276;2024-02-26T16:51:53;98292.00;;;12.90
19948;BMP180;10135;50.702;7.276;2024-02-26T16:53:54;98295.00;;;12.90
19948;BMP180;10135;50.702;7.276;2024-02-26T16:55:57;98294.00;;;12.90
19948;BMP180;10135;50.702;7.276;2024-02-26T16:58:02;98294.00;;;12.90
19948;BMP180;10135;50.702;7.276;2024-02-26T17:00:05;98308.00;;;12.90
19948;BMP180;10135;50.702;7.276;2024-02-26T17:02:06;98312.00;;;12.90
19948;BMP180;10135;50.702;7.276;2024-02-26T17:04:07;98325.00;;;12.90
19948;BMP180;10135;50.702;7.276;2024-02-26T17:06:09;98327.00;;;12.90
19948;BMP180;10135;50.702;7.276;2024-02-26T17:08:09;98326.00;;;12.90
19948;BMP180;10135;50.702;7.276;2024-02-26T17:10:11;98329.00;;;12.90
19948;BMP180;10135;50.702;7.276;2024-02-26T17:12:12;98329.00;;;12.90
19948;BMP180;10135;50.702;7.276;2024-02-26T17:14:13;98334.00;;;12.90
19948;BMP180;10135;50.702;7.276;2024-02-26T17:16:15;98330.00;;;12.90
19948;BMP180;10135;50.702;7.276;2024-02-26T17:18:16;98342.00;;;12.90
19948;BMP180;10135;50.702;7.276;2024-02-26T17:20:17;98341.00;;;12.90
19948;BMP180;10135;50.702;7.276;2024-02-26T17:22:17;98353.00;;;12.90
19948;BMP180;10135;50.702;7.276;2024-02-26T17:24:18;98355.00;;;12.90
19948;BMP180;10135;50.702;7.276;2024-02-26T17:26:24;98351.00;;;12.90
19948;BMP180;10135;50.702;7.276;2024-02-26T17:28:25;98363.00;;;12.90
19948;BMP180;10135;50.702;7.276;2024-02-26T17:30:26;98354.00;;;12.90
19948;BMP180;10135;50.702;7.276;2024-02-26T17:32:27;98364.00;;;12.90
19948;BMP180;10135;50.702;7.276;2024-02-26T17:34:27;98367.00;;;12.90
19948;BMP180;10135;50.702;7.276;2024-02-26T17:36:28;98372.00;;;12.90
19948;BMP180;10135;50.702;7.276;2024-02-26T17:38:28;98373.00;;;12.90
19948;BMP180;10135;50.702;7.276;2024-02-26T17:40:30;98380.00;;;12.90
19948;BMP180;10135;50.702;7.276;2024-02-26T17:42:32;98385.00;;;12.90
19948;BMP180;10135;50.702;7.276;2024-02-26T17:44:39;98385.00;;;12.90
19948;BMP180;10135;50.702;7.276;2024-02-26T17:46:40;98392.00;;;12.90
19948;BMP180;10135;50.702;7.276;2024-02-26T17:48:40;98394.00;;;12.90
19948;BMP180;10135;50.702;7.276;2024-02-26T17:50:44;98399.00;;;12.90
19948;BMP180;10135;50.702;7.276;2024-02-26T17:52:45;98402.00;;;12.90
19948;BMP180;10135;50.702;7.276;2024-02-26T17:54:45;98404.00;;;12.90
19948;BMP180;10135;50.702;7.276;2024-02-26T17:56:46;98411.00;;;12.90
19948;BMP180;10135;50.702;7.276;2024-02-26T17:58:47;98410.00;;;12.90